Time;durP1;ratioP1;P1;durP2;ratioP2;P2;SDS_P1;SDS_P2;PMS_P1;PMS_P2;Temp;Humidity;BMP_temperature;BMP_pressure;BME280_temperature;BME280_humidity;BME280_pressure;Samples;Min_cycle;Max_cycle;Signal;HPM_P1;HPM_P2
2021/11/22 00:00:23;;;;;;;;;;;;;;;20.53;44.78;102215.16;7287068;19;151747;-51
2021/11/22 00:02:50;;;;;;;;;;;;;;;20.47;45.21;102217.13;7289946;19;153785;-51
2021/11/22 00:05:17;;;;;;;;;;;;;;;20.45;45.25;102221.28;7285786;19;151864;-51
2021/11/22 00:07:44;;;;;;;;;;;;;;;20.43;45.27;102224.41;7287689;19;153054;-51
2021/11/22 00:10:11;;;;;;;;;;;;;;;20.39;45.43;102221.31;7286585;19;153490;-51
2021/11/22 00:12:38;;;;;;;;;;;;;;;20.37;45.50;102234.75;7285574;19;152507;-51
2021/11/22 00:15:06;;;;;;;;;;;;;;;20.33;45.38;102230.81;7287343;19;153326;-51
2021/11/22 00:17:34;;;;;;;;;;;;;;;20.31;45.33;102233.06;7286234;19;154263;-51
2021/11/22 00:20:02;;;;;;;;;;;;;;;20.27;45.04;102228.22;7285498;19;151972;-51
2021/11/22 00:22:29;;;;;;;;;;;;;;;20.25;45.04;102233.28;7287566;19;153912;-51
2021/11/22 00:24:56;;;;;;;;;;;;;;;20.22;45.23;102231.88;7291658;19;154259;-51
2021/11/22 00:27:23;;;;;;;;;;;;;;;20.18;45.12;102229.88;7286813;19;153183;-51
2021/11/22 00:29:50;;;;;;;;;;;;;;;20.15;45.20;102241.66;7283952;19;153496;-51
2021/11/22 00:32:16;;;;;;;;;;;;;;;20.12;45.53;102240.28;7286826;19;151912;-51
2021/11/22 00:34:44;;;;;;;;;;;;;;;20.11;45.14;102234.91;7285099;19;153063;-51
2021/11/22 00:37:17;;;;;;;;;;;;;;;20.08;45.72;102235.47;7283269;19;154523;-51
2021/11/22 00:39:44;;;;;;;;;;;;;;;20.02;45.32;102239.38;7284762;19;151768;-51
2021/11/22 00:42:11;;;;;;;;;;;;;;;20.01;45.33;102240.47;7286968;19;153643;-51
2021/11/22 00:44:38;;;;;;;;;;;;;;;20.00;45.67;102242.44;7283019;19;154082;-51
2021/11/22 00:47:05;;;;;;;;;;;;;;;19.97;45.48;102246.66;7291688;19;152160;-51
2021/11/22 00:49:33;;;;;;;;;;;;;;;19.92;45.49;102254.19;7283039;19;153869;-51
2021/11/22 00:52:00;;;;;;;;;;;;;;;19.90;45.62;102257.25;7286790;19;151909;-51
2021/11/22 00:54:27;;;;;;;;;;;;;;;19.89;45.52;102260.34;7286574;19;154278;-51
2021/11/22 00:56:53;;;;;;;;;;;;;;;19.85;45.77;102251.63;7281189;19;153423;-51
2021/11/22 00:59:20;;;;;;;;;;;;;;;19.82;46.00;102254.97;7284591;19;152943;-51
2021/11/22 01:01:49;;;;;;;;;;;;;;;19.81;46.05;102258.88;7284922;19;152855;-51
2021/11/22 01:04:17;;;;;;;;;;;;;;;19.79;45.61;102266.75;7283352;19;154213;-51
2021/11/22 01:06:44;;;;;;;;;;;;;;;19.78;45.71;102267.84;7283723;19;151769;-51
2021/11/22 01:09:11;;;;;;;;;;;;;;;19.77;46.20;102262.50;7291277;19;152174;-51
2021/11/22 01:11:38;;;;;;;;;;;;;;;19.75;45.88;102268.41;7287037;19;151746;-51
2021/11/22 01:14:05;;;;;;;;;;;;;;;19.77;45.98;102268.97;7285670;19;153557;-51
2021/11/22 01:16:33;;;;;;;;;;;;;;;19.73;46.18;102267.81;7281589;19;153531;-51
2021/11/22 01:19:00;;;;;;;;;;;;;;;19.73;46.47;102279.03;7285897;19;152321;-51
2021/11/22 01:21:27;;;;;;;;;;;;;;;19.69;46.15;102279.84;7286293;19;152747;-51
2021/11/22 01:23:54;;;;;;;;;;;;;;;19.68;46.06;102284.59;7282206;19;153554;-51
2021/11/22 01:26:20;;;;;;;;;;;;;;;19.68;46.42;102275.34;7284626;19;152190;-51
2021/11/22 01:28:47;;;;;;;;;;;;;;;19.65;46.29;102278.69;7285213;19;153175;-51
2021/11/22 01:31:15;;;;;;;;;;;;;;;19.62;46.25;102280.09;7290800;19;154171;-51
2021/11/22 01:33:41;;;;;;;;;;;;;;;19.62;46.64;102287.66;7282976;19;153313;-51
2021/11/22 01:36:08;;;;;;;;;;;;;;;19.62;45.98;102298.88;7283556;19;154255;-51
2021/11/22 01:38:35;;;;;;;;;;;;;;;19.60;46.44;102296.34;7284861;19;151966;-51
2021/11/22 01:41:02;;;;;;;;;;;;;;;19.58;46.17;102298.53;7286071;19;153217;-52
2021/11/22 01:43:29;;;;;;;;;;;;;;;19.57;46.64;102302.50;7283011;19;154565;-51
2021/11/22 01:45:56;;;;;;;;;;;;;;;19.55;46.76;102293.50;7283679;19;151868;-51
2021/11/22 01:48:22;;;;;;;;;;;;;;;19.55;46.97;102299.09;7282452;19;151991;-51
2021/11/22 01:50:50;;;;;;;;;;;;;;;19.54;46.56;102295.44;7281958;19;154215;-51
2021/11/22 01:53:17;;;;;;;;;;;;;;;19.51;46.93;102306.34;7291981;19;151933;-52
2021/11/22 01:55:44;;;;;;;;;;;;;;;19.52;46.61;102308.06;7283400;19;154224;-51
2021/11/22 01:58:11;;;;;;;;;;;;;;;19.50;46.79;102313.91;7284029;19;152320;-50
2021/11/22 02:00:43;;;;;;;;;;;;;;;19.50;46.96;102313.91;7283608;19;152984;-51
2021/11/22 02:03:10;;;;;;;;;;;;;;;19.47;47.14;102317.25;7278017;19;154109;-51
2021/11/22 02:05:37;;;;;;;;;;;;;;;19.45;47.06;102313.03;7284620;19;151832;-51
2021/11/22 02:08:05;;;;;;;;;;;;;;;19.47;46.79;102316.41;7286816;19;153180;-51
2021/11/22 02:10:31;;;;;;;;;;;;;;;19.45;46.78;102324.22;7295891;19;153946;-51
2021/11/22 02:12:58;;;;;;;;;;;;;;;19.43;46.69;102326.44;7304693;19;151834;-51
2021/11/22 02:15:25;;;;;;;;;;;;;;;19.42;47.04;102322.78;7295993;19;154176;-51
2021/11/22 02:17:52;;;;;;;;;;;;;;;19.42;47.02;102319.13;7294255;19;152386;-51
2021/11/22 02:20:23;;;;;;;;;;;;;;;19.39;46.85;102320.53;7299267;19;153345;-52
2021/11/22 02:22:51;;;;;;;;;;;;;;;19.38;47.13;102320.78;7296289;19;154253;-51
2021/11/22 02:25:19;;;;;;;;;;;;;;;19.37;47.27;102316.28;7297831;19;151881;-51
2021/11/22 02:27:46;;;;;;;;;;;;;;;19.34;47.25;102316.84;7296484;19;153481;-51
2021/11/22 02:30:14;;;;;;;;;;;;;;;19.32;47.25;102330.25;7296506;19;152881;-51
2021/11/22 02:32:42;;;;;;;;;;;;;;;19.31;46.84;102325.75;7295151;19;152162;-51
2021/11/22 02:35:11;;;;;;;;;;;;;;;19.29;47.18;102326.03;7304531;19;153084;-51
2021/11/22 02:37:38;;;;;;;;;;;;;;;19.26;46.96;102340.56;7293435;19;152003;-51
2021/11/22 02:40:05;;;;;;;;;;;;;;;19.25;46.61;102335.25;7296087;19;152743;-51
2021/11/22 02:42:32;;;;;;;;;;;;;;;19.24;47.26;102337.19;7296281;19;153472;-51
2021/11/22 02:44:59;;;;;;;;;;;;;;;19.22;47.30;102336.59;7296694;19;151908;-51
2021/11/22 02:47:25;;;;;;;;;;;;;;;19.21;47.30;102342.50;7294671;19;152397;-50
2021/11/22 02:49:52;;;;;;;;;;;;;;;19.21;47.38;102339.69;7295867;19;153575;-51
2021/11/22 02:52:18;;;;;;;;;;;;;;;19.17;46.67;102335.75;7296910;19;152418;-51
2021/11/22 02:54:45;;;;;;;;;;;;;;;19.18;47.20;102349.47;7296476;19;152709;-51
2021/11/22 02:57:13;;;;;;;;;;;;;;;19.14;46.96;102345.50;7299882;19;153983;-51
2021/11/22 02:59:40;;;;;;;;;;;;;;;19.15;46.94;102344.41;7297113;19;153611;-51
2021/11/22 03:02:08;;;;;;;;;;;;;;;19.13;46.59;102351.34;7291693;19;153781;-51
2021/11/22 03:04:37;;;;;;;;;;;;;;;19.11;47.20;102357.25;7297231;19;151712;-51
2021/11/22 03:07:04;;;;;;;;;;;;;;;19.10;47.18;102347.16;7296735;19;153311;-51
2021/11/22 03:09:31;;;;;;;;;;;;;;;19.07;46.78;102356.94;7293742;19;153775;-51
2021/11/22 03:11:59;;;;;;;;;;;;;;;19.07;47.35;102353.28;7294132;19;151967;-51
2021/11/22 03:14:26;;;;;;;;;;;;;;;19.06;47.36;102358.03;7294155;19;152844;-51
2021/11/22 03:16:54;;;;;;;;;;;;;;;19.02;47.14;102356.88;7292727;19;153478;-51
2021/11/22 03:19:20;;;;;;;;;;;;;;;19.02;47.22;102359.69;7300583;19;152657;-51
2021/11/22 03:21:47;;;;;;;;;;;;;;;19.02;47.70;102361.63;7287177;19;153575;-51
2021/11/22 03:24:14;;;;;;;;;;;;;;;18.99;47.32;102357.38;7286311;19;152305;-51
2021/11/22 03:26:41;;;;;;;;;;;;;;;18.96;47.32;102362.69;7287657;19;152515;-51
2021/11/22 03:29:08;;;;;;;;;;;;;;;18.95;47.48;102356.22;7285285;19;155070;-51
2021/11/22 03:31:36;;;;;;;;;;;;;;;18.93;47.57;102364.06;7288649;19;152322;-51
2021/11/22 03:34:04;;;;;;;;;;;;;;;18.94;47.79;102362.13;7288015;19;153149;-51
2021/11/22 03:36:32;;;;;;;;;;;;;;;18.92;47.69;102365.16;7285782;19;153180;-52
2021/11/22 03:39:00;;;;;;;;;;;;;;;18.92;47.60;102369.91;7285827;19;151974;-51
2021/11/22 03:41:29;;;;;;;;;;;;;;;18.88;47.99;102372.41;7294277;19;153218;-51
2021/11/22 03:43:58;;;;;;;;;;;;;;;18.90;47.89;102375.78;7285173;19;152354;-51
2021/11/22 03:46:25;;;;;;;;;;;;;;;18.87;47.93;102370.72;7284783;19;152716;-51
2021/11/22 03:48:52;;;;;;;;;;;;;;;18.86;48.10;102374.59;7286587;19;153465;-51
2021/11/22 03:51:19;;;;;;;;;;;;;;;18.84;48.00;102378.78;7289024;19;152017;-51
2021/11/22 03:53:46;;;;;;;;;;;;;;;18.85;48.21;102383.28;7287653;19;153236;-51
2021/11/22 03:56:13;;;;;;;;;;;;;;;18.82;47.84;102390.25;7287474;19;153253;-51
2021/11/22 03:58:40;;;;;;;;;;;;;;;18.81;47.82;102399.75;7285048;19;152755;-51
2021/11/22 04:01:06;;;;;;;;;;;;;;;18.77;48.15;102390.19;7287855;19;153209;-51
2021/11/22 04:03:33;;;;;;;;;;;;;;;18.75;47.86;102389.63;7293613;19;151417;-51
2021/11/22 04:06:00;;;;;;;;;;;;;;;18.76;48.17;102393.25;7288287;19;153807;-51
2021/11/22 04:08:26;;;;;;;;;;;;;;;18.74;47.97;102396.31;7286023;19;154288;-51
2021/11/22 04:10:53;;;;;;;;;;;;;;;18.73;47.73;102400.22;7286454;19;151816;-51
2021/11/22 04:13:19;;;;;;;;;;;;;;;18.71;48.14;102405.25;7287014;19;151932;-50
2021/11/22 04:15:46;;;;;;;;;;;;;;;18.71;48.37;102401.59;7284839;19;154708;-51
2021/11/22 04:18:13;;;;;;;;;;;;;;;18.69;48.30;102412.19;7285149;19;151883;-51
2021/11/22 04:20:40;;;;;;;;;;;;;;;18.65;47.84;102412.72;7286401;19;153354;-51
2021/11/22 04:23:07;;;;;;;;;;;;;;;18.64;48.36;102413.81;7291150;19;153357;-51
2021/11/22 04:25:33;;;;;;;;;;;;;;;18.63;48.52;102425.28;7285365;19;151772;-51
2021/11/22 04:28:01;;;;;;;;;;;;;;;18.65;48.58;102425.88;7284506;19;153464;-51
2021/11/22 04:30:30;;;;;;;;;;;;;;;18.64;48.41;102429.78;7287838;19;152034;-51
2021/11/22 04:32:57;;;;;;;;;;;;;;;18.61;48.28;102435.91;7283669;19;152747;-51
2021/11/22 04:35:24;;;;;;;;;;;;;;;18.61;48.47;102438.69;7286898;19;154251;-51
2021/11/22 04:37:51;;;;;;;;;;;;;;;18.60;48.55;102454.66;7284687;19;152067;-51
2021/11/22 04:40:18;;;;;;;;;;;;;;;18.60;48.46;102459.38;7287536;19;153429;-56
2021/11/22 04:42:47;;;;;;;;;;;;;;;18.57;48.46;102457.97;7280872;19;153411;-51
2021/11/22 04:45:16;;;;;;;;;;;;;;;18.58;48.58;102462.44;7292531;19;152068;-51
2021/11/22 04:47:43;;;;;;;;;;;;;;;18.57;48.36;102469.16;7283637;19;153461;-51
2021/11/22 04:50:09;;;;;;;;;;;;;;;18.55;48.65;102471.38;7287153;19;152427;-51
2021/11/22 04:52:36;;;;;;;;;;;;;;;18.53;48.86;102464.34;7285747;19;152465;-51
2021/11/22 04:55:03;;;;;;;;;;;;;;;18.52;48.14;102468.22;7286194;19;153854;-51
2021/11/22 04:57:30;;;;;;;;;;;;;;;18.52;48.69;102466.25;7286011;19;151978;-51
2021/11/22 04:59:56;;;;;;;;;;;;;;;18.51;48.98;102469.31;7284161;19;155275;-51
2021/11/22 05:02:23;;;;;;;;;;;;;;;18.54;48.84;102469.66;7282389;19;152735;-51
2021/11/22 05:04:50;;;;;;;;;;;;;;;18.57;48.97;102474.75;7284325;19;151740;-51
2021/11/22 05:07:17;;;;;;;;;;;;;;;18.61;49.12;102477.88;7293328;19;153057;-50
2021/11/22 05:09:46;;;;;;;;;;;;;;;18.64;49.31;102474.56;7286122;19;151924;-51
2021/11/22 05:12:14;;;;;;;;;;;;;;;18.67;49.39;102471.22;7286118;19;153363;-51
2021/11/22 05:14:40;;;;;;;;;;;;;;;18.72;49.70;102481.66;7284600;19;154659;-51
2021/11/22 05:17:07;;;;;;;;;;;;;;;18.75;49.72;102482.00;7285154;19;152957;-51
2021/11/22 05:19:34;;;;;;;;;;;;;;;18.81;50.12;102482.91;7285894;19;152136;-52
2021/11/22 05:22:01;;;;;;;;;;;;;;;18.85;50.29;102478.50;7285014;19;153897;-51
2021/11/22 05:24:29;;;;;;;;;;;;;;;18.92;50.37;102485.59;7285722;19;152218;-51
2021/11/22 05:26:56;;;;;;;;;;;;;;;18.97;50.20;102484.81;7285804;19;153256;-51
2021/11/22 05:29:23;;;;;;;;;;;;;;;19.03;50.24;102484.59;7289574;19;151995;-51
2021/11/22 05:31:50;;;;;;;;;;;;;;;19.09;50.50;102486.38;7285449;19;153269;-51
2021/11/22 05:34:18;;;;;;;;;;;;;;;19.16;50.05;102483.38;7283498;19;153013;-50
2021/11/22 05:36:45;;;;;;;;;;;;;;;19.22;49.95;102475.84;7285987;19;152388;-51
2021/11/22 05:39:12;;;;;;;;;;;;;;;19.28;50.10;102483.22;7281514;19;151913;-51
2021/11/22 05:41:39;;;;;;;;;;;;;;;19.34;50.23;102491.44;7285362;19;153501;-51
2021/11/22 05:44:06;;;;;;;;;;;;;;;19.41;49.95;102488.41;7282795;19;152245;-51
2021/11/22 05:46:33;;;;;;;;;;;;;;;19.45;50.07;102487.66;7285765;19;152743;-51
2021/11/22 05:48:59;;;;;;;;;;;;;;;19.50;49.93;102493.31;7283615;19;153406;-51
2021/11/22 05:51:27;;;;;;;;;;;;;;;19.56;49.83;102490.56;7291097;19;152164;-51
2021/11/22 05:53:56;;;;;;;;;;;;;;;19.63;49.50;102497.66;7281831;19;153927;-52
2021/11/22 05:56:23;;;;;;;;;;;;;;;19.68;49.57;102489.31;7284472;19;151561;-51
2021/11/22 05:58:49;;;;;;;;;;;;;;;19.76;50.23;102493.59;7282857;19;153274;-51
2021/11/22 06:01:21;;;;;;;;;;;;;;;19.81;49.80;102493.63;7282138;19;153407;-51
2021/11/22 06:03:48;;;;;;;;;;;;;;;19.86;49.54;102490.88;7283985;19;152257;-51
2021/11/22 06:06:14;;;;;;;;;;;;;;;19.92;49.46;102504.69;7284832;19;152799;-51
2021/11/22 06:08:41;;;;;;;;;;;;;;;19.97;49.14;102501.09;7283283;19;153412;-53
2021/11/22 06:11:07;;;;;;;;;;;;;;;20.02;49.19;102505.91;7292555;19;152303;-51
2021/11/22 06:13:34;;;;;;;;;;;;;;;20.08;48.48;102516.06;7282105;19;152718;-51
2021/11/22 06:16:01;;;;;;;;;;;;;;;20.13;48.69;102514.13;7284851;19;152200;-51
2021/11/22 06:18:27;;;;;;;;;;;;;;;20.18;48.47;102516.97;7282341;19;152899;-51
2021/11/22 06:20:54;;;;;;;;;;;;;;;20.22;48.33;102518.13;7281143;19;153916;-51
2021/11/22 06:23:21;;;;;;;;;;;;;;;20.28;48.46;102517.06;7284015;19;151875;-51
2021/11/22 06:25:47;;;;;;;;;;;;;;;20.33;48.19;102531.19;7284536;19;153073;-51
2021/11/22 06:28:14;;;;;;;;;;;;;;;20.38;48.08;102538.78;7281723;19;153373;-51
2021/11/22 06:30:41;;;;;;;;;;;;;;;20.41;48.08;102547.50;7283959;19;151736;-51
2021/11/22 06:33:07;;;;;;;;;;;;;;;20.47;48.04;102539.13;7286969;19;153567;-51
2021/11/22 06:35:36;;;;;;;;;;;;;;;20.52;48.03;102544.78;7284049;19;152101;-51
2021/11/22 06:38:03;;;;;;;;;;;;;;;20.57;48.39;102553.25;7280657;19;152966;-51
2021/11/22 06:40:30;;;;;;;;;;;;;;;20.62;47.93;102565.38;7282267;19;152331;-52
2021/11/22 06:42:57;;;;;;;;;;;;;;;20.65;48.10;102566.78;7281267;19;151589;-51
2021/11/22 06:45:24;;;;;;;;;;;;;;;20.70;47.63;102566.84;7279917;19;153105;-51
2021/11/22 06:47:50;;;;;;;;;;;;;;;20.73;47.55;102567.13;7280110;19;153503;-51
2021/11/22 06:50:17;;;;;;;;;;;;;;;20.77;48.11;102576.69;7282059;19;152128;-52
2021/11/22 06:52:45;;;;;;;;;;;;;;;20.82;47.87;102584.31;7281800;19;153607;-52
2021/11/22 06:55:12;;;;;;;;;;;;;;;20.86;47.51;102582.66;7289842;19;153921;-52
2021/11/22 06:57:38;;;;;;;;;;;;;;;20.89;47.46;102586.91;7287539;19;153225;-51
2021/11/22 07:00:07;;;;;;;;;;;;;;;20.93;47.40;102586.09;7288901;19;153483;-52
2021/11/22 07:02:33;;;;;;;;;;;;;;;20.97;47.39;102598.47;7286318;19;152179;-52
2021/11/22 07:05:00;;;;;;;;;;;;;;;21.01;46.82;102601.59;7289820;19;153219;-52
2021/11/22 07:07:27;;;;;;;;;;;;;;;21.04;47.01;102604.69;7288199;19;154064;-51
2021/11/22 07:09:53;;;;;;;;;;;;;;;21.07;47.06;102604.16;7289098;19;152138;-52
2021/11/22 07:12:20;;;;;;;;;;;;;;;21.11;46.75;102607.28;7289269;19;153099;-52
2021/11/22 07:14:47;;;;;;;;;;;;;;;21.16;46.44;102621.41;7287530;19;152345;-51
2021/11/22 07:17:14;;;;;;;;;;;;;;;21.19;46.49;102620.84;7294630;19;151548;-51
2021/11/22 07:19:42;;;;;;;;;;;;;;;21.23;46.24;102624.81;7284556;19;154178;-51
2021/11/22 07:22:09;;;;;;;;;;;;;;;21.28;46.85;102627.63;7287555;19;152167;-52
2021/11/22 07:24:39;;;;;;;;;;;;;;;21.33;46.40;102626.81;7288789;19;153303;-52
2021/11/22 07:27:06;;;;;;;;;;;;;;;21.36;45.67;102638.38;7287557;19;152537;-52
2021/11/22 07:29:33;;;;;;;;;;;;;;;21.39;45.30;102645.44;7287328;19;152879;-52
2021/11/22 07:31:59;;;;;;;;;;;;;;;21.41;45.10;102638.41;7287343;19;153498;-52
2021/11/22 07:34:26;;;;;;;;;;;;;;;21.45;44.66;102645.16;7285301;19;152019;-52
2021/11/22 07:36:53;;;;;;;;;;;;;;;21.46;44.34;102646.84;7288995;19;151938;-52
2021/11/22 07:39:19;;;;;;;;;;;;;;;21.47;44.33;102653.34;7291325;19;153307;-52
2021/11/22 07:41:46;;;;;;;;;;;;;;;21.42;42.18;102653.31;7286885;19;152170;-52
2021/11/22 07:44:12;;;;;;;;;;;;;;;21.45;42.16;102662.03;7288546;19;153060;-52
2021/11/22 07:46:39;;;;;;;;;;;;;;;21.46;42.27;102672.16;7287105;19;153898;-52
2021/11/22 07:49:06;;;;;;;;;;;;;;;21.49;42.40;102677.25;7288211;19;151572;-52
2021/11/22 07:51:33;;;;;;;;;;;;;;;21.50;42.86;102676.13;7288712;19;151914;-53
2021/11/22 07:53:59;;;;;;;;;;;;;;;21.52;42.92;102681.50;7285693;19;153995;-52
2021/11/22 07:56:26;;;;;;;;;;;;;;;21.54;42.59;102691.34;7287931;19;151826;-51
2021/11/22 07:58:52;;;;;;;;;;;;;;;21.55;42.49;102689.38;7287080;19;152950;-52
2021/11/22 08:01:19;;;;;;;;;;;;;;;21.54;42.28;102688.53;7294695;19;153568;-52
2021/11/22 08:03:46;;;;;;;;;;;;;;;21.56;42.63;102691.91;7287755;19;152288;-51
2021/11/22 08:06:13;;;;;;;;;;;;;;;21.59;42.49;102696.13;7287042;19;153748;-51
2021/11/22 08:08:40;;;;;;;;;;;;;;;21.60;42.80;102700.66;7285273;19;152168;-52
2021/11/22 08:11:29;;;;;;;;;;;;;;;21.60;42.48;102701.50;7288013;19;152748;-52
2021/11/22 08:13:53;;;;;;;;;;;;;;;21.61;42.43;102700.38;7281753;19;153360;-56
2021/11/22 08:16:20;;;;;;;;;;;;;;;21.69;42.75;102710.25;7286877;19;151792;-52
2021/11/22 08:18:48;;;;;;;;;;;;;;;21.69;42.02;102715.91;7286459;19;153667;-51
2021/11/22 08:21:15;;;;;;;;;;;;;;;22.24;44.67;102712.50;7295055;19;153310;-50
2021/11/22 08:23:43;;;;;;;;;;;;;;;22.04;44.13;102710.44;7287476;19;153758;-53
2021/11/22 08:26:09;;;;;;;;;;;;;;;22.02;43.68;102715.53;7287088;19;153878;-51
2021/11/22 08:28:36;;;;;;;;;;;;;;;21.96;43.89;102715.75;7286806;19;151924;-51
2021/11/22 08:31:03;;;;;;;;;;;;;;;21.95;43.96;102716.88;7287691;19;152547;-51
2021/11/22 08:33:30;;;;;;;;;;;;;;;21.92;44.13;102723.88;7286362;19;153317;-51
2021/11/22 08:35:57;;;;;;;;;;;;;;;21.91;43.64;102726.97;7287159;19;152269;-51
2021/11/22 08:38:23;;;;;;;;;;;;;;;21.91;44.06;102718.53;7287201;19;152953;-51
2021/11/22 08:40:50;;;;;;;;;;;;;;;21.86;43.66;102730.59;7283957;19;153958;-51
2021/11/22 08:43:17;;;;;;;;;;;;;;;21.87;43.40;102728.63;7290957;19;153248;-51
2021/11/22 08:45:47;;;;;;;;;;;;;;;21.87;43.22;102731.44;7286473;19;153529;-50
2021/11/22 08:48:15;;;;;;;;;;;;;;;21.85;43.37;102722.47;7258249;19;155153;-51
2021/11/22 08:50:42;;;;;;;;;;;;;;;21.85;43.23;102736.53;7273277;19;152565;-51
2021/11/22 08:53:09;;;;;;;;;;;;;;;21.83;43.51;102733.13;7279252;19;152385;-51
2021/11/22 08:55:35;;;;;;;;;;;;;;;21.79;43.27;102749.72;7283253;19;152023;-51
2021/11/22 08:58:02;;;;;;;;;;;;;;;21.78;42.94;102749.97;7284599;19;153477;-51
2021/11/22 09:00:32;;;;;;;;;;;;;;;21.78;43.00;102755.59;7282004;19;153742;-51
2021/11/22 09:02:58;;;;;;;;;;;;;;;21.74;43.01;102764.59;7281585;19;152633;-51
2021/11/22 09:05:26;;;;;;;;;;;;;;;21.71;42.66;102770.75;7292160;19;153281;-51
2021/11/22 09:07:53;;;;;;;;;;;;;;;21.68;43.04;102767.66;7283614;19;152381;-51
2021/11/22 09:10:21;;;;;;;;;;;;;;;21.69;43.14;102770.19;7285288;19;154133;-50
2021/11/22 09:12:49;;;;;;;;;;;;;;;21.69;42.95;102764.56;7278118;19;153736;-50
2021/11/22 09:15:16;;;;;;;;;;;;;;;21.69;43.31;102772.16;7279254;19;152777;-51
2021/11/22 09:17:44;;;;;;;;;;;;;;;21.69;43.04;102766.53;7279186;19;152051;-51
2021/11/22 09:20:11;;;;;;;;;;;;;;;21.71;43.39;102762.31;7273777;19;154425;-51
2021/11/22 09:22:37;;;;;;;;;;;;;;;21.72;42.88;102772.47;7278407;19;154090;-52
2021/11/22 09:25:20;;;;;;;;;;;;;;;21.74;42.96;102767.41;7281157;19;153179;-51
2021/11/22 09:27:50;;;;;;;;;;;;;;;21.76;42.99;102774.75;7286865;19;152376;-52
2021/11/22 09:30:38;;;;;;;;;;;;;;;21.73;43.42;102771.34;7282316;19;154074;-51
2021/11/22 09:33:28;;;;;;;;;;;;;;;21.74;43.13;102772.19;7273113;19;152914;-52
2021/11/22 09:35:56;;;;;;;;;;;;;;;21.73;42.90;102776.97;7281864;19;152056;-52
2021/11/22 09:38:28;;;;;;;;;;;;;;;21.72;43.16;102783.72;7281581;19;152249;-52
2021/11/22 09:40:55;;;;;;;;;;;;;;;21.71;43.42;102779.19;7280958;19;153727;-52
2021/11/22 09:43:22;;;;;;;;;;;;;;;21.71;42.86;102782.00;7281673;19;151718;-52
2021/11/22 09:45:48;;;;;;;;;;;;;;;21.70;42.77;102785.13;7282809;19;152702;-51
2021/11/22 09:48:15;;;;;;;;;;;;;;;21.67;42.87;102794.94;7281164;19;154052;-52
2021/11/22 09:50:42;;;;;;;;;;;;;;;21.68;42.83;102785.38;7290474;19;152120;-52
2021/11/22 09:53:09;;;;;;;;;;;;;;;21.65;42.84;102794.38;7283246;19;154224;-53
2021/11/22 09:55:37;;;;;;;;;;;;;;;21.64;42.54;102787.03;7285395;19;151906;-52
2021/11/22 09:58:06;;;;;;;;;;;;;;;21.66;42.44;102793.25;7285404;19;153239;-52
2021/11/22 10:00:53;;;;;;;;;;;;;;;21.64;42.64;102797.44;7248507;19;154503;-52
2021/11/22 10:03:22;;;;;;;;;;;;;;;21.62;42.54;102811.78;7279675;19;152106;-51
2021/11/22 10:05:54;;;;;;;;;;;;;;;21.60;42.63;102801.91;7283930;19;152716;-52
2021/11/22 10:08:24;;;;;;;;;;;;;;;21.58;42.57;102807.81;7281264;19;154011;-52
2021/11/22 10:10:51;;;;;;;;;;;;;;;21.57;42.42;102810.91;7283706;19;152012;-52
2021/11/22 10:13:21;;;;;;;;;;;;;;;21.56;42.22;102810.06;7288716;19;151690;-52
2021/11/22 10:15:48;;;;;;;;;;;;;;;21.53;42.59;102812.56;7281534;19;151891;-52
2021/11/22 10:18:25;;;;;;;;;;;;;;;21.53;42.31;102804.94;7281876;19;153564;-52
2021/11/22 10:20:53;;;;;;;;;;;;;;;21.54;42.22;102812.28;7279848;19;153149;-51
2021/11/22 10:23:25;;;;;;;;;;;;;;;21.53;42.57;102810.56;7282033;19;152458;-51
2021/11/22 10:25:53;;;;;;;;;;;;;;;21.56;43.09;102814.84;7283310;19;152688;-51
2021/11/22 10:28:38;;;;;;;;;;;;;;;21.58;42.99;102810.63;7281894;19;153252;-52
2021/11/22 10:31:16;;;;;;;;;;;;;;;21.60;43.05;102816.84;7288981;19;151947;-52
2021/11/22 10:33:44;;;;;;;;;;;;;;;21.64;42.88;102808.69;7295005;19;152154;-51
2021/11/22 10:36:12;;;;;;;;;;;;;;;21.63;42.78;102802.22;7287061;19;151771;-52
2021/11/22 10:38:40;;;;;;;;;;;;;;;21.65;43.11;102807.59;7288062;19;152918;-52
2021/11/22 10:41:09;;;;;;;;;;;;;;;21.64;43.12;102808.69;7286218;19;153216;-52
2021/11/22 10:43:42;;;;;;;;;;;;;;;21.67;42.96;102814.63;7286344;19;151917;-52
2021/11/22 10:46:10;;;;;;;;;;;;;;;21.65;42.65;102814.06;7280444;19;152779;-51
2021/11/22 10:48:41;;;;;;;;;;;;;;;21.65;42.85;102814.06;7285891;19;152220;-52
2021/11/22 10:51:20;;;;;;;;;;;;;;;21.65;43.09;102819.69;7288046;19;151818;-52
2021/11/22 10:53:53;;;;;;;;;;;;;;;21.65;42.92;102818.84;7288092;19;153476;-52
2021/11/22 10:56:21;;;;;;;;;;;;;;;21.64;42.78;102820.81;7290966;19;153385;-52
2021/11/22 10:58:54;;;;;;;;;;;;;;;21.67;42.84;102813.78;7287407;19;153178;-52
2021/11/22 11:01:24;;;;;;;;;;;;;;;21.65;42.62;102818.84;7284613;19;153269;-51
2021/11/22 11:03:52;;;;;;;;;;;;;;;21.64;42.34;102818.00;7287619;19;152229;-52
2021/11/22 11:06:19;;;;;;;;;;;;;;;21.64;42.66;102820.81;7287556;19;153772;-52
2021/11/22 11:08:50;;;;;;;;;;;;;;;21.63;42.33;102824.72;7287002;19;153397;-52
2021/11/22 11:11:16;;;;;;;;;;;;;;;21.62;42.40;102825.03;7287294;19;152340;-52
2021/11/22 11:13:48;;;;;;;;;;;;;;;21.60;42.38;102816.84;7284384;19;152351;-52
2021/11/22 11:16:15;;;;;;;;;;;;;;;21.59;42.44;102817.94;7286001;19;153361;-52
2021/11/22 11:19:03;;;;;;;;;;;;;;;21.58;42.59;102824.69;7292388;19;152195;-52
2021/11/22 11:21:32;;;;;;;;;;;;;;;21.56;42.15;102818.50;7283710;19;153977;-52
2021/11/22 11:24:00;;;;;;;;;;;;;;;21.56;42.26;102821.31;7279229;19;151965;-52
2021/11/22 11:26:28;;;;;;;;;;;;;;;21.55;41.98;102822.41;7274279;19;154135;-52
2021/11/22 11:28:56;;;;;;;;;;;;;;;21.53;41.72;102821.81;7282093;19;153410;-51
2021/11/22 11:31:31;;;;;;;;;;;;;;;21.54;42.18;102812.28;7284301;19;151988;-52
2021/11/22 11:34:13;;;;;;;;;;;;;;;21.52;42.21;102820.16;7282563;19;151807;-53
2021/11/22 11:37:04;;;;;;;;;;;;;;;21.51;41.95;102829.72;7284766;19;154191;-52
2021/11/22 11:39:54;;;;;;;;;;;;;;;21.49;42.31;102823.50;7286223;19;152709;-52
2021/11/22 11:42:53;;;;;;;;;;;;;;;21.48;42.25;102823.78;7290634;19;151862;-52
2021/11/22 11:45:31;;;;;;;;;;;;;;;21.45;42.15;102825.16;7286723;19;153222;-52
2021/11/22 11:48:22;;;;;;;;;;;;;;;21.45;42.13;102821.47;7284336;19;152217;-52
2021/11/22 11:51:08;;;;;;;;;;;;;;;21.43;42.14;102818.13;7284683;19;152783;-52
2021/11/22 11:54:17;;;;;;;;;;;;;;;21.40;42.09;102833.53;7284261;19;152202;-52
2021/11/22 11:57:08;;;;;;;;;;;;;;;21.38;42.24;102824.53;7282132;19;152713;-51
2021/11/22 11:59:52;;;;;;;;;;;;;;;21.37;42.21;102824.81;7282096;19;152633;-52
2021/11/22 12:02:30;;;;;;;;;;;;;;;21.35;42.32;102829.88;7281710;19;152022;-52
2021/11/22 12:05:06;;;;;;;;;;;;;;;21.35;42.18;102829.88;7285731;19;153554;-52
2021/11/22 12:07:44;;;;;;;;;;;;;;;21.33;42.30;102829.25;7290203;19;152808;-51
2021/11/22 12:10:20;;;;;;;;;;;;;;;21.30;42.19;102828.69;7285187;19;152653;-51
2021/11/22 12:13:09;;;;;;;;;;;;;;;21.29;41.79;102823.34;7281440;19;152430;-51
2021/11/22 12:15:43;;;;;;;;;;;;;;;21.28;42.11;102818.81;7283637;19;151904;-50
2021/11/22 12:18:38;;;;;;;;;;;;;;;21.24;42.06;102815.72;7284237;19;152820;-51
2021/11/22 12:21:18;;;;;;;;;;;;;;;21.23;42.34;102821.59;7280206;19;152507;-50
2021/11/22 12:23:53;;;;;;;;;;;;;;;21.22;42.17;102828.31;7284075;19;151979;-52
2021/11/22 12:26:30;;;;;;;;;;;;;;;21.22;42.34;102819.88;7284574;19;151988;-50
2021/11/22 12:29:05;;;;;;;;;;;;;;;21.21;42.37;102813.41;7279661;19;154734;-50
2021/11/22 12:31:53;;;;;;;;;;;;;;;21.23;42.83;102822.44;7292392;19;151529;-51
2021/11/22 12:34:56;;;;;;;;;;;;;;;21.26;42.72;102821.91;7282352;19;152605;-50
2021/11/22 12:37:35;;;;;;;;;;;;;;;21.30;42.82;102823.06;7282515;19;152293;-50